09:37
Airports
History
Links
Donate
Help keep this website running!
PayPal
Bitcoin
This page is community maintained. The information is intended for PC simulator navigation or reference.
Always use approved charts for navigation.
ETSA
Landsberg Lech
Landsberg Lech (ETSA)
Penzing, Bayern, Germany (86929)
(C)
Lat/Lng:48° 4' 13.8" N / 10° 54' 21.6" E
48.0705 / 10.906
Elevation:2044'ft / 623mMSL
ID / ICAO:ETSA
Runways:1
Longest:07-25
Concrete 2,060m / 6,759ft
Controlled:Yes
METAR09:20 GMT 2017-10-24
Altimeter: 30.33
Visibility: 6.2 statute miles
Wind: 10 knots (from 240°)
Temp: 11°c / 52°f
Humidity: 71.2%

METAR: ETSA 240920Z 24010KT 9999 FEW020 SCT060 11/06 Q1027 BLU+BLU TEMPO BLU+

(Powered by phpweather)
Airport Radio Frequencies
Tower: 122.1, 138.4
Approach: 123.3, 130.5, 138.2
Nearby VORs <50NM
Nearby NDBs
Runway 07 / 25
Dimensions:2060 x 29.9m 6759' x 98'ft
Surface:Concrete
Edge Lights:High intensity
Runway 07 [A]Runway 25 [B]
Heading:072°TH 252°TH
Lat:
Lng:
48° 4' 3.6"N
10° 53' 34.2"E
48° 4' 24"N
10° 55' 9"E
ALS:MALSMALS
User Notes and Comments
48° 4' 13.8" N / 10° 54' 21.6" E
Distance To
Airport ID:
Nearby Airports
(C) LECHFELD 8.2 NM
ETSL ( WX ) NNW 345°
(C) Jesenwang 12.4 NM
EDMJ NE 54°
(C) Oberpfaffenhofen 17.4 NM
EDMO ( WX ) E 87°
(C) MINDELHEIM MATTSIES 17.8 NM
EDMN W 278°
(U) FURSTENFELDBRUCK 19.1 NM
ETSF ( WX ) ENE 60°
(C) Kaufbeuren 19.7 NM
ED08 SW 223°
(C) Augsburg 24.5 NM
EDMA ( WX ) N
VFR Chart
Flight Planning at SkyVector.com